Terminal Aerodrome Forecast
Issued by NWS

Current Version | Previous Version | Text Only | Print | Product List | Glossary On
Versions: 1 2 3 4 5 6 7 8 9 10 11 12 13 14 15 16
000
FTUS42 KTAE 251120
TAFDHN
TAF
KDHN 251120Z 2512/2612 VRB02KT 3SM BR SCT002 BKN010
      TEMPO 2512/2514 1SM BR OVC002
     FM251500 23005KT P6SM BKN040
     FM251800 23007KT P6SM TS SCT025CB BKN050
     FM260200 VRB02KT P6SM SCT040=

USA.gov is the U.S. government's official web portal to all federal, state and local government web resources and services.